Time;durP1;ratioP1;P1;durP2;ratioP2;P2;SDS_P1;SDS_P2;PMS_P1;PMS_P2;Temp;Humidity;BMP_temperature;BMP_pressure;BME280_temperature;BME280_humidity;BME280_pressure;Samples;Min_cycle;Max_cycle;Signal;HPM_P1;HPM_P2
2022/02/26 00:12:54;;;;;;;;;;;;;;;;;;;;;
2022/02/26 00:15:20;;;;;;;;;;;2.80;99.60;;;;;;5015300;28;19913;-87
2022/02/26 00:18:05;;;;;;;;;;;2.70;99.60;;;;;;5017785;28;20001;-88
2022/02/26 00:23:57;;;;;;;;;;;;;;;;;;;;;
2022/02/26 00:26:35;;;;;;;;;;;2.60;99.70;;;;;;5001041;28;19923;-86
2022/02/26 00:29:03;;;;;;;;;;;2.70;99.70;;;;;;5014464;28;19917;-88
2022/02/26 00:31:46;;;;;;;;;;;2.60;99.60;;;;;;4999659;28;20008;-88
2022/02/26 00:34:15;;;;;;;;;;;2.60;99.70;;;;;;5024224;28;20295;-88
2022/02/26 00:36:58;;;;;;;;;;;2.60;99.70;;;;;;5079151;28;19908;-88
2022/02/26 00:39:29;;;;;;;;;;;2.50;99.70;;;;;;5114270;28;19918;-87
2022/02/26 00:42:04;;;;;;;;;;;2.50;99.70;;;;;;5119016;28;19938;-88
2022/02/26 00:47:26;;;;;;;;;;;2.40;99.80;;;;;;5070220;28;19969;-87
2022/02/26 00:53:20;;;;;;;;;;;2.40;99.90;;;;;;5011240;28;19944;-87
2022/02/26 00:59:00;;;;;;;;;;;2.50;99.90;;;;;;5095722;28;20377;-88
2022/02/26 01:01:40;;;;;;;;;;;2.40;99.90;;;;;;5079068;28;19908;-88
2022/02/26 01:04:11;;;;;;;;;;;2.40;99.90;;;;;;5076883;28;20296;-87
2022/02/26 01:06:49;;;;;;;;;;;2.40;99.90;;;;;;5077724;28;21027;-88
2022/02/26 01:12:14;;;;;;;;;;;2.30;99.90;;;;;;5075344;28;19971;-87
2022/02/26 01:14:47;;;;;;;;;;;2.30;99.90;;;;;;5091788;28;19962;-87
2022/02/26 01:17:18;;;;;;;;;;;2.30;99.90;;;;;;5097579;28;19919;-86
2022/02/26 01:19:51;;;;;;;;;;;2.30;99.90;;;;;;5096053;28;19908;-88
2022/02/26 01:22:22;;;;;;;;;;;2.30;99.90;;;;;;5095002;28;19908;-87
2022/02/26 01:24:51;;;;;;;;;;;2.30;99.90;;;;;;5094344;28;19919;-86
2022/02/26 01:27:22;;;;;;;;;;;2.30;99.90;;;;;;5088909;28;19912;-86
2022/02/26 01:29:52;;;;;;;;;;;2.20;99.90;;;;;;5094146;28;20045;-87
2022/02/26 01:32:18;;;;;;;;;;;2.20;99.90;;;;;;5078551;28;19912;-87
2022/02/26 01:35:02;;;;;;;;;;;2.20;99.90;;;;;;5094396;28;19912;-86
2022/02/26 01:37:38;;;;;;;;;;;2.20;99.90;;;;;;5080554;28;19909;-88
2022/02/26 01:40:07;;;;;;;;;;;2.10;99.90;;;;;;5074820;28;19920;-88
2022/02/26 01:42:40;;;;;;;;;;;2.10;99.90;;;;;;5075243;28;20263;-87
2022/02/26 01:45:12;;;;;;;;;;;2.10;99.90;;;;;;5076288;28;19912;-87
2022/02/26 01:50:48;;;;;;;;;;;2.10;99.90;;;;;;5084647;28;19915;-87
2022/02/26 01:53:24;;;;;;;;;;;;;;;;;;;;;
2022/02/26 02:21:01;;;;;;;;;;;;;;;;;;;;;
2022/02/26 02:23:54;;;;;;;;;;;1.90;99.90;;;;;;4896038;29;19960;-86
2022/02/26 02:26:38;;;;;;;;;;;1.90;99.90;;;;;;4917564;29;19929;-86
2022/02/26 02:29:45;;;;;;;;;;;1.90;99.90;;;;;;4904893;29;19915;-87
2022/02/26 02:35:25;;;;;;;;;;;2.00;99.90;;;;;;4921569;29;19911;-87
2022/02/26 02:38:01;;;;;;;;;;;;;;;;;;;;;
2022/02/26 02:40:35;;;;;;;;;;;2.00;99.90;;;;;;4933104;29;19910;-87
2022/02/26 02:43:05;;;;;;;;;;;2.00;99.90;;;;;;4907716;29;19927;-88
2022/02/26 02:45:43;;;;;;;;;;;1.90;99.90;;;;;;4923175;29;20017;-88
2022/02/26 02:48:50;;;;;;;;;;;1.90;99.90;;;;;;4923463;29;20431;-87
2022/02/26 02:51:15;;;;;;;;;;;1.80;99.90;;;;;;4939466;29;19966;-87
2022/02/26 02:53:59;;;;;;;;;;;1.80;99.90;;;;;;4923052;29;19918;-87
2022/02/26 02:56:37;;;;;;;;;;;1.80;99.90;;;;;;4921681;29;19911;-87
2022/02/26 02:59:13;;;;;;;;;;;1.80;99.90;;;;;;4923150;29;20411;-86
2022/02/26 03:01:46;;;;;;;;;;;1.80;99.90;;;;;;4894963;29;20384;-87
2022/02/26 03:04:17;;;;;;;;;;;1.80;99.90;;;;;;4885076;29;19924;-87
2022/02/26 03:07:08;;;;;;;;;;;1.70;99.90;;;;;;4900800;29;19922;-87
2022/02/26 03:09:41;;;;;;;;;;;1.70;99.90;;;;;;4900947;29;19979;-87
2022/02/26 03:12:15;;;;;;;;;;;1.80;99.90;;;;;;4899637;29;19947;-86
2022/02/26 03:14:48;;;;;;;;;;;1.80;99.90;;;;;;4888974;29;19948;-87
2022/02/26 03:17:32;;;;;;;;;;;1.80;99.90;;;;;;4921316;29;19911;-87
2022/02/26 03:20:35;;;;;;;;;;;1.80;99.90;;;;;;4904219;29;20006;-88
2022/02/26 03:23:14;;;;;;;;;;;1.80;99.90;;;;;;4943847;28;19906;-88
2022/02/26 03:25:44;;;;;;;;;;;1.80;99.90;;;;;;4945958;28;19941;-89
2022/02/26 03:28:23;;;;;;;;;;;1.70;99.90;;;;;;4946059;28;19910;-88
2022/02/26 03:30:59;;;;;;;;;;;1.70;99.90;;;;;;4929753;29;19915;-89
2022/02/26 03:33:32;;;;;;;;;;;1.70;99.90;;;;;;4922678;29;20335;-88
2022/02/26 03:36:01;;;;;;;;;;;1.70;99.90;;;;;;4922483;29;19911;-88
2022/02/26 03:38:42;;;;;;;;;;;;;;;;;;;;;
2022/02/26 03:41:17;;;;;;;;;;;1.60;99.90;;;;;;4939373;29;19910;-89
2022/02/26 03:46:41;;;;;;;;;;;1.60;99.90;;;;;;4897105;29;19935;-87
2022/02/26 03:49:09;;;;;;;;;;;1.60;99.90;;;;;;4889086;29;20419;-87
2022/02/26 03:51:50;;;;;;;;;;;1.60;99.90;;;;;;4888179;29;19983;-86
2022/02/26 03:57:07;;;;;;;;;;;1.60;99.90;;;;;;4906485;29;20006;-86
2022/02/26 03:59:45;;;;;;;;;;;1.50;99.90;;;;;;4904313;29;19918;-88
2022/02/26 04:02:18;;;;;;;;;;;1.60;99.90;;;;;;4903199;29;19946;-88
2022/02/26 04:04:53;;;;;;;;;;;1.50;99.90;;;;;;4903641;29;19925;-88
2022/02/26 04:07:29;;;;;;;;;;;;;;;;;;;;;
2022/02/26 04:10:06;;;;;;;;;;;1.50;99.90;;;;;;4919924;29;20287;-86
2022/02/26 04:12:39;;;;;;;;;;;1.60;99.90;;;;;;4888697;29;19922;-87
2022/02/26 04:15:33;;;;;;;;;;;1.60;99.90;;;;;;4921048;29;19937;-87
2022/02/26 04:18:26;;;;;;;;;;;1.60;99.90;;;;;;4902318;29;20368;-87
2022/02/26 04:20:52;;;;;;;;;;;1.60;99.90;;;;;;4902223;29;19926;-87
2022/02/26 04:23:20;;;;;;;;;;;1.60;99.90;;;;;;4902994;29;19915;-87
2022/02/26 04:25:46;;;;;;;;;;;1.60;99.90;;;;;;4903661;29;19919;-88
2022/02/26 04:28:17;;;;;;;;;;;1.60;99.90;;;;;;4903408;29;20017;-88
2022/02/26 04:30:55;;;;;;;;;;;;;;;;;;;;;
2022/02/26 04:33:21;;;;;;;;;;;1.60;99.90;;;;;;4920291;29;20292;-87
2022/02/26 04:35:54;;;;;;;;;;;1.60;99.90;;;;;;4902936;29;20002;-88
2022/02/26 04:38:29;;;;;;;;;;;1.60;99.90;;;;;;4903031;29;20332;-85
2022/02/26 04:40:58;;;;;;;;;;;1.60;99.90;;;;;;4888711;29;19915;-87
2022/02/26 04:43:24;;;;;;;;;;;1.60;99.90;;;;;;4902540;29;19899;-87
2022/02/26 04:45:55;;;;;;;;;;;1.60;99.90;;;;;;4925697;29;19914;-89
2022/02/26 04:48:26;;;;;;;;;;;1.60;99.90;;;;;;4926024;29;20018;-87
2022/02/26 04:50:59;;;;;;;;;;;1.60;99.90;;;;;;4921712;29;19925;-87
2022/02/26 04:53:25;;;;;;;;;;;1.60;99.90;;;;;;4902289;29;19916;-87
2022/02/26 04:56:07;;;;;;;;;;;;;;;;;;;;;
2022/02/26 04:58:34;;;;;;;;;;;1.60;99.90;;;;;;4919586;29;19919;-86
2022/02/26 05:01:08;;;;;;;;;;;1.60;99.90;;;;;;4901947;29;19912;-86
2022/02/26 05:03:44;;;;;;;;;;;1.60;99.90;;;;;;4901851;29;19927;-87
2022/02/26 05:06:17;;;;;;;;;;;1.60;99.90;;;;;;4902018;29;20250;-86
2022/02/26 05:09:21;;;;;;;;;;;1.50;99.90;;;;;;4900357;29;19919;-87
2022/02/26 05:11:55;;;;;;;;;;;1.50;99.90;;;;;;4921426;29;19914;-85
2022/02/26 05:14:21;;;;;;;;;;;1.50;99.90;;;;;;4912359;29;19919;-84
2022/02/26 05:17:01;;;;;;;;;;;1.50;99.90;;;;;;4944385;29;19918;-85
2022/02/26 05:19:35;;;;;;;;;;;1.50;99.90;;;;;;4891161;29;20378;-85
2022/02/26 05:22:03;;;;;;;;;;;1.50;99.90;;;;;;4902982;29;20034;-87
2022/02/26 05:24:38;;;;;;;;;;;;;;;;;;;;;
2022/02/26 05:27:09;;;;;;;;;;;1.40;99.90;;;;;;4919038;29;20266;-88
2022/02/26 05:29:38;;;;;;;;;;;1.40;99.90;;;;;;4902892;29;19995;-87
2022/02/26 05:32:09;;;;;;;;;;;1.40;99.90;;;;;;4901657;29;19918;-88
2022/02/26 05:34:46;;;;;;;;;;;1.30;99.90;;;;;;4902108;29;20391;-87
2022/02/26 05:37:22;;;;;;;;;;;1.40;99.90;;;;;;4887063;29;20010;-87
2022/02/26 05:40:00;;;;;;;;;;;;;;;;;;;;;
2022/02/26 05:42:56;;;;;;;;;;;;;;;;;;;;;
2022/02/26 05:48:35;;;;;;;;;;;1.20;99.90;;;;;;4918927;29;19915;-87
2022/02/26 05:51:06;;;;;;;;;;;1.20;99.90;;;;;;4909498;29;20564;-88
2022/02/26 05:53:36;;;;;;;;;;;1.20;99.90;;;;;;4924746;29;19933;-87
2022/02/26 05:56:02;;;;;;;;;;;1.20;99.90;;;;;;4924628;29;20359;-88
2022/02/26 05:58:27;;;;;;;;;;;1.20;99.90;;;;;;4941441;29;20360;-88
2022/02/26 06:00:56;;;;;;;;;;;1.20;99.90;;;;;;4924861;29;19910;-88
2022/02/26 06:03:21;;;;;;;;;;;1.20;99.90;;;;;;4910251;29;19926;-88
2022/02/26 06:05:50;;;;;;;;;;;1.20;99.90;;;;;;4928677;29;19923;-88
2022/02/26 06:08:15;;;;;;;;;;;1.20;99.90;;;;;;4928625;29;19934;-87
2022/02/26 06:10:43;;;;;;;;;;;1.20;99.90;;;;;;4927991;29;19926;-86
2022/02/26 06:13:24;;;;;;;;;;;1.20;99.90;;;;;;4926659;29;20383;-88
2022/02/26 06:15:55;;;;;;;;;;;1.30;99.90;;;;;;4905656;29;19911;-87
2022/02/26 06:18:21;;;;;;;;;;;1.20;99.90;;;;;;4905326;29;19984;-88
2022/02/26 06:20:51;;;;;;;;;;;1.20;99.90;;;;;;4921520;29;19938;-87
2022/02/26 06:23:29;;;;;;;;;;;1.20;99.90;;;;;;4890818;29;19919;-88
2022/02/26 06:25:54;;;;;;;;;;;1.30;99.90;;;;;;4905075;29;19926;-85
2022/02/26 06:28:20;;;;;;;;;;;1.30;99.90;;;;;;4904836;29;19919;-86
2022/02/26 06:30:57;;;;;;;;;;;1.30;99.90;;;;;;4904996;29;19912;-87
2022/02/26 06:33:35;;;;;;;;;;;1.30;99.90;;;;;;4904989;29;20382;-86
2022/02/26 06:38:58;;;;;;;;;;;1.40;99.90;;;;;;4921661;29;20356;-86
2022/02/26 06:41:52;;;;;;;;;;;1.40;99.90;;;;;;4904568;29;19942;-87
2022/02/26 06:44:18;;;;;;;;;;;1.40;99.90;;;;;;4891188;29;20387;-86
2022/02/26 06:46:45;;;;;;;;;;;1.40;99.90;;;;;;4904833;29;19915;-87
2022/02/26 06:49:20;;;;;;;;;;;1.40;99.90;;;;;;4904892;29;19915;-87
2022/02/26 06:51:53;;;;;;;;;;;1.40;99.90;;;;;;4904889;29;19933;-87
2022/02/26 06:54:22;;;;;;;;;;;1.40;99.90;;;;;;4908596;29;19915;-87
2022/02/26 06:56:52;;;;;;;;;;;1.50;99.90;;;;;;4940777;29;19911;-87
2022/02/26 06:59:20;;;;;;;;;;;1.50;99.90;;;;;;4923213;29;19918;-87
2022/02/26 07:01:51;;;;;;;;;;;1.50;99.90;;;;;;4923716;29;19911;-87
2022/02/26 07:04:19;;;;;;;;;;;1.50;99.90;;;;;;4939874;29;19966;-88
2022/02/26 07:06:48;;;;;;;;;;;1.50;99.90;;;;;;4923734;29;19914;-86
2022/02/26 07:09:42;;;;;;;;;;;1.50;99.90;;;;;;4925003;29;19911;-87
2022/02/26 07:12:13;;;;;;;;;;;1.50;99.90;;;;;;4927326;29;19911;-87
2022/02/26 07:14:52;;;;;;;;;;;1.50;99.90;;;;;;4946065;29;19911;-86
2022/02/26 07:17:37;;;;;;;;;;;1.50;99.90;;;;;;4928609;29;19943;-86
2022/02/26 07:20:05;;;;;;;;;;;1.50;99.90;;;;;;4939093;28;19915;-87
2022/02/26 07:22:36;;;;;;;;;;;1.50;99.90;;;;;;4962878;28;19958;-86
2022/02/26 07:25:45;;;;;;;;;;;1.50;99.90;;;;;;4930675;28;19919;-85
2022/02/26 07:28:21;;;;;;;;;;;1.50;99.90;;;;;;4924326;29;19910;-89
2022/02/26 07:30:56;;;;;;;;;;;1.60;99.90;;;;;;4911771;29;19922;-87
2022/02/26 07:33:40;;;;;;;;;;;1.60;99.90;;;;;;4898567;29;19938;-87
2022/02/26 07:36:18;;;;;;;;;;;1.60;99.90;;;;;;4891860;29;19922;-87
2022/02/26 07:38:47;;;;;;;;;;;1.60;99.90;;;;;;4904588;29;19912;-87
2022/02/26 07:41:15;;;;;;;;;;;1.60;99.90;;;;;;4903768;29;20367;-88
2022/02/26 07:44:13;;;;;;;;;;;;;;;;;;;;;
2022/02/26 07:46:45;;;;;;;;;;;1.70;99.90;;;;;;4918216;29;20389;-87
2022/02/26 07:49:13;;;;;;;;;;;1.80;99.90;;;;;;4922429;29;19968;-89
2022/02/26 07:51:47;;;;;;;;;;;1.80;99.90;;;;;;4906637;29;19982;-87
2022/02/26 07:54:28;;;;;;;;;;;;;;;;;;;;;
2022/02/26 07:57:24;;;;;;;;;;;1.90;99.90;;;;;;4939727;29;19917;-86
2022/02/26 07:59:52;;;;;;;;;;;1.90;99.90;;;;;;4918807;29;19915;-87
2022/02/26 08:02:28;;;;;;;;;;;1.90;99.90;;;;;;4902861;29;19919;-85
2022/02/26 08:04:59;;;;;;;;;;;2.00;99.90;;;;;;4901629;29;19919;-84
2022/02/26 08:07:27;;;;;;;;;;;2.00;99.90;;;;;;4902233;29;19976;-85
2022/02/26 08:10:09;;;;;;;;;;;;;;;;;;;;;
2022/02/26 08:12:39;;;;;;;;;;;2.10;99.90;;;;;;4939328;29;19911;-86
2022/02/26 08:15:23;;;;;;;;;;;2.10;99.90;;;;;;4938183;29;19911;-86
2022/02/26 08:17:57;;;;;;;;;;;2.10;99.90;;;;;;4922903;29;19911;-87
2022/02/26 08:20:26;;;;;;;;;;;2.20;99.90;;;;;;4920096;29;19918;-87
2022/02/26 08:22:55;;;;;;;;;;;2.20;99.90;;;;;;4940775;29;19981;-87
2022/02/26 08:25:34;;;;;;;;;;;2.20;99.90;;;;;;4938661;29;19923;-85
2022/02/26 08:28:00;;;;;;;;;;;2.30;99.90;;;;;;4925025;29;20033;-88
2022/02/26 08:30:28;;;;;;;;;;;2.30;99.90;;;;;;4908276;29;20001;-89
2022/02/26 08:32:57;;;;;;;;;;;2.30;99.90;;;;;;4903234;29;19915;-88
2022/02/26 08:35:23;;;;;;;;;;;2.40;99.90;;;;;;4902712;29;19911;-88
2022/02/26 08:38:06;;;;;;;;;;;2.40;99.90;;;;;;4887079;29;19938;-88
2022/02/26 08:40:32;;;;;;;;;;;2.50;99.90;;;;;;4904142;29;19911;-88
2022/02/26 08:43:03;;;;;;;;;;;2.50;99.90;;;;;;4910051;29;20372;-89
2022/02/26 08:45:31;;;;;;;;;;;2.60;99.90;;;;;;4906865;29;19915;-88
2022/02/26 08:48:31;;;;;;;;;;;2.60;99.90;;;;;;4910648;29;19903;-88
2022/02/26 08:53:57;;;;;;;;;;;;;;;;;;;;;
2022/02/26 08:56:28;;;;;;;;;;;2.80;99.90;;;;;;4924150;29;19915;-87
2022/02/26 08:59:14;;;;;;;;;;;2.90;99.90;;;;;;4921549;29;19911;-87
2022/02/26 09:01:43;;;;;;;;;;;2.90;99.90;;;;;;4910674;29;19917;-88
2022/02/26 09:04:36;;;;;;;;;;;3.00;99.90;;;;;;4911246;29;19911;-87
2022/02/26 09:12:58;;;;;;;;;;;3.20;99.90;;;;;;4926857;29;19992;-87
2022/02/26 09:15:45;;;;;;;;;;;3.30;99.90;;;;;;4937646;29;20362;-87
2022/02/26 09:18:31;;;;;;;;;;;3.30;99.90;;;;;;4921291;29;19911;-88
2022/02/26 09:20:56;;;;;;;;;;;3.40;99.90;;;;;;4937180;29;19911;-87
2022/02/26 09:23:25;;;;;;;;;;;3.40;99.90;;;;;;4907620;29;20031;-90
2022/02/26 09:26:04;;;;;;;;;;;3.50;99.90;;;;;;4886479;29;19975;-87
2022/02/26 09:28:42;;;;;;;;;;;3.50;99.90;;;;;;4899681;29;19923;-87
2022/02/26 09:31:25;;;;;;;;;;;;;;;;;;;;;
2022/02/26 09:33:59;;;;;;;;;;;3.70;99.90;;;;;;4916863;29;19925;-89
2022/02/26 09:36:30;;;;;;;;;;;3.70;99.90;;;;;;4921121;29;19963;-89
2022/02/26 09:39:30;;;;;;;;;;;3.80;99.90;;;;;;4905340;29;19915;-87
2022/02/26 09:42:07;;;;;;;;;;;3.90;99.90;;;;;;4911830;29;20371;-87
2022/02/26 09:45:03;;;;;;;;;;;;;;;;;;;;;
2022/02/26 09:47:34;;;;;;;;;;;4.00;99.90;;;;;;4937717;29;19919;-90
2022/02/26 09:50:09;;;;;;;;;;;4.10;99.90;;;;;;4920807;29;19911;-88
2022/02/26 09:58:30;;;;;;;;;;;4.30;99.90;;;;;;4896465;29;19975;-89
2022/02/26 10:01:12;;;;;;;;;;;4.50;99.90;;;;;;4902050;29;19915;-90
2022/02/26 10:03:58;;;;;;;;;;;4.60;99.90;;;;;;4902793;29;19911;-89
2022/02/26 10:06:39;;;;;;;;;;;;;;;;;;;;;
2022/02/26 10:09:38;;;;;;;;;;;;;;;;;;;;;
2022/02/26 10:12:25;;;;;;;;;;;4.80;99.90;;;;;;4955741;28;19900;-88
2022/02/26 10:15:17;;;;;;;;;;;;;;;;;;;;;
2022/02/26 10:24:58;;;;;;;;;;;;;;;;;;;;;
2022/02/26 10:27:34;;;;;;;;;;;5.40;99.90;;;;;;4937890;29;19921;-88
2022/02/26 10:33:22;;;;;;;;;;;;;;;;;;;;;
2022/02/26 10:36:10;;;;;;;;;;;5.60;99.90;;;;;;4941048;29;19911;-90
2022/02/26 10:54:24;;;;;;;;;;;;;;;;;;;;;
2022/02/26 11:00:29;;;;;;;;;;;;;;;;;;;;;
2022/02/26 11:03:36;;;;;;;;;;;;;;;;;;;;;
2022/02/26 11:06:14;;;;;;;;;;;;;;;;;;;;;
2022/02/26 11:11:56;;;;;;;;;;;;;;;;;;;;;
2022/02/26 11:14:45;;;;;;;;;;;6.90;99.90;;;;;;4940943;29;19917;-86
2022/02/26 11:20:51;;;;;;;;;;;7.10;99.90;;;;;;4940155;29;20283;-89
2022/02/26 11:32:28;;;;;;;;;;;7.50;99.90;;;;;;4849807;29;19916;-89
2022/02/26 11:38:11;;;;;;;;;;;7.50;99.90;;;;;;4857313;29;19985;-88
2022/02/26 11:43:44;;;;;;;;;;;7.70;99.90;;;;;;4885864;29;19900;-86
2022/02/26 11:55:57;;;;;;;;;;;7.80;99.40;;;;;;4918395;29;19911;-89
2022/02/26 11:58:45;;;;;;;;;;;7.80;98.90;;;;;;4862128;29;19912;-88
2022/02/26 12:01:21;;;;;;;;;;;7.90;99.00;;;;;;4825328;29;19917;-88
2022/02/26 12:03:58;;;;;;;;;;;8.00;98.60;;;;;;4825409;29;20309;-89
2022/02/26 12:06:31;;;;;;;;;;;8.00;98.50;;;;;;4825574;29;20417;-88
2022/02/26 12:09:34;;;;;;;;;;;8.10;98.40;;;;;;4839891;29;19977;-88
2022/02/26 12:12:20;;;;;;;;;;;8.10;98.10;;;;;;4903012;29;19919;-90
2022/02/26 12:14:58;;;;;;;;;;;8.10;97.80;;;;;;4903101;29;19942;-88
2022/02/26 12:24:33;;;;;;;;;;;8.10;97.40;;;;;;4914150;29;19945;-88
2022/02/26 12:27:16;;;;;;;;;;;8.10;97.40;;;;;;4861621;29;19949;-88
2022/02/26 12:29:44;;;;;;;;;;;8.20;97.20;;;;;;4885561;29;19935;-88
2022/02/26 12:32:30;;;;;;;;;;;8.30;96.90;;;;;;4902789;29;19918;-89
2022/02/26 12:35:05;;;;;;;;;;;8.30;96.90;;;;;;4897708;29;20014;-88
2022/02/26 12:37:51;;;;;;;;;;;8.30;96.60;;;;;;4884183;29;20417;-89
2022/02/26 12:40:23;;;;;;;;;;;8.30;96.20;;;;;;4883946;29;19911;-89
2022/02/26 12:43:09;;;;;;;;;;;8.30;96.00;;;;;;4884156;29;19915;-89
2022/02/26 12:45:48;;;;;;;;;;;8.40;95.40;;;;;;4884362;29;19922;-89
2022/02/26 12:48:33;;;;;;;;;;;8.40;95.30;;;;;;4907670;29;19966;-89
2022/02/26 12:51:17;;;;;;;;;;;8.50;95.40;;;;;;4921246;29;19912;-89
2022/02/26 12:54:21;;;;;;;;;;;;;;;;;;;;;
2022/02/26 12:57:00;;;;;;;;;;;;;;;;;;;;;
2022/02/26 13:03:13;;;;;;;;;;;8.50;95.30;;;;;;4832376;29;19920;-90
2022/02/26 13:05:44;;;;;;;;;;;8.60;95.10;;;;;;4841717;29;20022;-87
2022/02/26 13:08:16;;;;;;;;;;;8.60;95.10;;;;;;4827313;29;20069;-87
2022/02/26 13:10:46;;;;;;;;;;;8.60;95.10;;;;;;4858933;29;20382;-88
2022/02/26 13:13:32;;;;;;;;;;;8.60;95.10;;;;;;4930770;28;19911;-90
2022/02/26 13:16:12;;;;;;;;;;;8.70;95.20;;;;;;4929931;28;19899;-91
2022/02/26 13:18:40;;;;;;;;;;;8.70;95.10;;;;;;4944295;28;19923;-88
2022/02/26 13:21:26;;;;;;;;;;;8.80;95.10;;;;;;4942364;29;19938;-88
2022/02/26 13:27:17;;;;;;;;;;;;;;;;;;;;;
2022/02/26 13:35:39;;;;;;;;;;;8.70;95.50;;;;;;4908992;29;19911;-83
2022/02/26 13:38:18;;;;;;;;;;;;;;;;;;;;;
2022/02/26 13:44:12;;;;;;;;;;;8.50;95.80;;;;;;4919685;29;19918;-89
2022/02/26 13:47:10;;;;;;;;;;;8.60;96.00;;;;;;4891803;29;20043;-89
2022/02/26 13:49:56;;;;;;;;;;;8.50;96.00;;;;;;4918855;29;19952;-89
2022/02/26 13:52:45;;;;;;;;;;;8.50;96.10;;;;;;4898387;29;20399;-89
2022/02/26 13:55:22;;;;;;;;;;;;;;;;;;;;;
2022/02/26 14:04:02;;;;;;;;;;;8.60;96.40;;;;;;4922724;29;19911;-87
2022/02/26 14:09:48;;;;;;;;;;;8.60;96.50;;;;;;4917609;29;19917;-88
2022/02/26 14:23:48;;;;;;;;;;;8.60;96.70;;;;;;4903438;29;19923;-89
2022/02/26 14:26:30;;;;;;;;;;;;;;;;;;;;;
2022/02/26 14:29:27;;;;;;;;;;;;;;;;;;;;;
2022/02/26 14:35:40;;;;;;;;;;;;;;;;;;;;;
2022/02/26 14:41:17;;;;;;;;;;;8.40;96.30;;;;;;4935568;29;19918;-87
2022/02/26 14:43:45;;;;;;;;;;;8.40;96.30;;;;;;4942156;29;19899;-86
2022/02/26 14:49:57;;;;;;;;;;;8.40;96.30;;;;;;4918939;29;19915;-89
2022/02/26 14:55:25;;;;;;;;;;;8.50;96.20;;;;;;4931502;29;20091;-90
2022/02/26 14:58:22;;;;;;;;;;;;;;;;;;;;;
2022/02/26 15:01:06;;;;;;;;;;;8.60;96.20;;;;;;4938829;29;20245;-89
2022/02/26 15:06:23;;;;;;;;;;;8.80;96.00;;;;;;4900319;29;20355;-89
2022/02/26 15:09:18;;;;;;;;;;;;;;;;;;;;;
2022/02/26 15:11:59;;;;;;;;;;;8.80;95.60;;;;;;4908929;29;19979;-88
2022/02/26 15:14:38;;;;;;;;;;;;;;;;;;;;;
2022/02/26 15:20:21;;;;;;;;;;;8.60;95.40;;;;;;4946164;29;19911;-88
2022/02/26 15:26:29;;;;;;;;;;;;;;;;;;;;;
2022/02/26 15:32:06;;;;;;;;;;;8.60;95.30;;;;;;4926169;29;19910;-89
2022/02/26 15:35:35;;;;;;;;;;;8.60;95.20;;;;;;4911323;29;19919;-89
2022/02/26 15:38:49;;;;;;;;;;;;;;;;;;;;;
2022/02/26 15:41:39;;;;;;;;;;;;;;;;;;;;;
2022/02/26 15:47:36;;;;;;;;;;;;;;;;;;;;;
2022/02/26 16:02:49;;;;;;;;;;;7.50;95.40;;;;;;4850682;29;19912;-90
2022/02/26 16:28:32;;;;;;;;;;;;;;;;;;;;;
2022/02/26 16:30:40;;;;;;;;;;;;;;;;;;;;;
2022/02/26 16:33:32;;;;;;;;;;;7.00;95.80;;;;;;4843463;29;20458;-88
2022/02/26 16:36:24;;;;;;;;;;;;;;;;;;;;;
2022/02/26 16:48:03;;;;;;;;;;;;;;;;;;;;;
2022/02/26 16:53:56;;;;;;;;;;;;;;;;;;;;;
2022/02/26 17:06:01;;;;;;;;;;;;;;;;;;;;;
2022/02/26 17:12:06;;;;;;;;;;;;;;;;;;;;;
2022/02/26 17:18:23;;;;;;;;;;;6.30;96.60;;;;;;4743410;30;20402;-90
2022/02/26 17:24:13;;;;;;;;;;;6.20;96.60;;;;;;4730501;30;19927;-90
2022/02/26 17:27:48;;;;;;;;;;;;;;;;;;;;;
2022/02/26 17:33:24;;;;;;;;;;;;;;;;;;;;;
2022/02/26 17:42:24;;;;;;;;;;;5.90;96.90;;;;;;4847843;29;20343;-90
2022/02/26 17:45:05;;;;;;;;;;;5.90;97.00;;;;;;4853198;29;19912;-90
2022/02/26 17:51:37;;;;;;;;;;;;;;;;;;;;;
2022/02/26 18:04:06;;;;;;;;;;;5.60;97.40;;;;;;4846041;29;19912;-89
2022/02/26 18:13:13;;;;;;;;;;;5.50;97.80;;;;;;4803080;29;19924;-89
2022/02/26 18:25:10;;;;;;;;;;;;;;;;;;;;;
2022/02/26 18:27:53;;;;;;;;;;;5.30;98.10;;;;;;4903580;29;19918;-89
2022/02/26 18:30:46;;;;;;;;;;;5.30;98.20;;;;;;4893754;29;20290;-89
2022/02/26 18:52:16;;;;;;;;;;;;;;;;;;;;;
2022/02/26 18:55:10;;;;;;;;;;;4.90;98.80;;;;;;4850990;29;19923;-88
2022/02/26 18:58:06;;;;;;;;;;;;;;;;;;;;;
2022/02/26 19:01:15;;;;;;;;;;;4.90;99.00;;;;;;4858622;29;19923;-89
2022/02/26 19:06:55;;;;;;;;;;;;;;;;;;;;;
2022/02/26 19:13:17;;;;;;;;;;;4.80;99.20;;;;;;4805767;29;19955;-90
2022/02/26 19:19:16;;;;;;;;;;;;;;;;;;;;;
2022/02/26 19:22:13;;;;;;;;;;;4.80;99.30;;;;;;4814889;29;20422;-90
2022/02/26 19:25:09;;;;;;;;;;;;;;;;;;;;;
2022/02/26 19:31:15;;;;;;;;;;;;;;;;;;;;;
2022/02/26 19:37:06;;;;;;;;;;;;;;;;;;;;;
2022/02/26 19:40:03;;;;;;;;;;;4.60;99.80;;;;;;4808722;29;19923;-91
2022/02/26 19:55:11;;;;;;;;;;;4.40;99.90;;;;;;4843283;29;19988;-90
2022/02/26 19:57:58;;;;;;;;;;;;;;;;;;;;;
2022/02/26 20:04:03;;;;;;;;;;;;;;;;;;;;;
2022/02/26 20:06:56;;;;;;;;;;;;;;;;;;;;;
2022/02/26 20:09:51;;;;;;;;;;;;;;;;;;;;;
2022/02/26 20:13:05;;;;;;;;;;;;;;;;;;;;;
2022/02/26 20:15:41;;;;;;;;;;;;;;;;;;;;;
2022/02/26 20:18:37;;;;;;;;;;;;;;;;;;;;;
2022/02/26 20:21:18;;;;;;;;;;;;;;;;;;;;;
2022/02/26 20:23:49;;;;;;;;;;;4.10;99.90;;;;;;4937228;29;19947;-91
2022/02/26 20:26:54;;;;;;;;;;;4.10;99.90;;;;;;4926275;29;19994;-89
2022/02/26 20:29:58;;;;;;;;;;;4.10;99.90;;;;;;4935351;29;19948;-90
2022/02/26 20:38:52;;;;;;;;;;;;;;;;;;;;;
2022/02/26 20:41:28;;;;;;;;;;;4.20;99.90;;;;;;4942781;29;19899;-89
2022/02/26 20:44:23;;;;;;;;;;;4.20;99.90;;;;;;4942380;28;19953;-89
2022/02/26 20:50:15;;;;;;;;;;;4.10;99.90;;;;;;4914992;29;20476;-89
2022/02/26 20:53:09;;;;;;;;;;;4.10;99.90;;;;;;4915359;29;19915;-90
2022/02/26 20:55:53;;;;;;;;;;;;;;;;;;;;;
2022/02/26 20:58:34;;;;;;;;;;;;;;;;;;;;;
2022/02/26 21:04:51;;;;;;;;;;;;;;;;;;;;;
2022/02/26 21:13:44;;;;;;;;;;;3.90;99.90;;;;;;4895674;29;19923;-88
2022/02/26 21:23:02;;;;;;;;;;;3.90;99.90;;;;;;4913934;29;20329;-89
2022/02/26 21:25:49;;;;;;;;;;;3.90;99.90;;;;;;4916377;29;19950;-89
2022/02/26 21:28:27;;;;;;;;;;;3.90;99.90;;;;;;4924864;29;19922;-90
2022/02/26 21:31:16;;;;;;;;;;;3.90;99.90;;;;;;4901281;29;20014;-89
2022/02/26 21:34:21;;;;;;;;;;;;;;;;;;;;;
2022/02/26 21:36:57;;;;;;;;;;;3.80;99.90;;;;;;4900590;29;20370;-90
2022/02/26 21:45:55;;;;;;;;;;;3.90;99.90;;;;;;4906695;29;19922;-90
2022/02/26 21:49:06;;;;;;;;;;;;;;;;;;;;;
2022/02/26 21:51:36;;;;;;;;;;;3.90;99.90;;;;;;4934660;29;19915;-89
2022/02/26 21:57:24;;;;;;;;;;;;;;;;;;;;;
2022/02/26 22:00:50;;;;;;;;;;;3.90;99.90;;;;;;4919283;29;20463;-89
2022/02/26 22:03:12;;;;;;;;;;;3.90;99.90;;;;;;4930160;29;19899;-94
2022/02/26 22:05:51;;;;;;;;;;;3.80;99.90;;;;;;4925410;29;19963;-90
2022/02/26 22:08:49;;;;;;;;;;;;;;;;;;;;;
2022/02/26 22:14:38;;;;;;;;;;;3.80;99.90;;;;;;4899482;29;19922;-89
2022/02/26 22:21:22;;;;;;;;;;;;;;;;;;;;;
2022/02/26 22:24:16;;;;;;;;;;;;;;;;;;;;;
2022/02/26 22:30:08;;;;;;;;;;;;;;;;;;;;;
2022/02/26 22:41:35;;;;;;;;;;;;;;;;;;;;;
2022/02/26 22:44:21;;;;;;;;;;;3.60;99.90;;;;;;4922011;29;20410;-89
2022/02/26 22:47:00;;;;;;;;;;;;;;;;;;;;;
2022/02/26 22:50:05;;;;;;;;;;;;;;;;;;;;;
2022/02/26 22:53:10;;;;;;;;;;;;;;;;;;;;;
2022/02/26 22:56:05;;;;;;;;;;;3.70;99.80;;;;;;4937156;29;19984;-89
2022/02/26 22:59:22;;;;;;;;;;;;;;;;;;;;;
2022/02/26 23:01:52;;;;;;;;;;;;;;;;;;;;;
2022/02/26 23:04:31;;;;;;;;;;;3.60;99.50;;;;;;4903554;29;19919;-88
2022/02/26 23:19:10;;;;;;;;;;;;;;;;;;;;;
2022/02/26 23:21:51;;;;;;;;;;;3.50;99.30;;;;;;4905998;29;20002;-89
2022/02/26 23:27:54;;;;;;;;;;;;;;;;;;;;;
2022/02/26 23:33:51;;;;;;;;;;;;;;;;;;;;;
2022/02/26 23:36:36;;;;;;;;;;;;;;;;;;;;;
2022/02/26 23:39:32;;;;;;;;;;;;;;;;;;;;;
2022/02/26 23:42:28;;;;;;;;;;;;;;;;;;;;;
2022/02/26 23:45:33;;;;;;;;;;;;;;;;;;;;;
2022/02/26 23:48:47;;;;;;;;;;;;;;;;;;;;;
2022/02/26 23:54:58;;;;;;;;;;;;;;;;;;;;;
2022/02/26 23:57:46;;;;;;;;;;;3.10;99.10;;;;;;4901671;29;19911;-88
